sensor_id;sensor_type;location;lat;lon;timestamp;temperature;humidity
23329;DHT22;11836;51.050;3.716;2023-04-24T00:01:16;18.00;99.90
23329;DHT22;11836;51.050;3.716;2023-04-24T00:03:42;18.00;99.90
23329;DHT22;11836;51.050;3.716;2023-04-24T00:06:09;17.90;99.90
23329;DHT22;11836;51.050;3.716;2023-04-24T00:08:35;17.90;99.90
23329;DHT22;11836;51.050;3.716;2023-04-24T00:11:01;17.90;99.90
23329;DHT22;11836;51.050;3.716;2023-04-24T00:13:27;17.90;99.90
23329;DHT22;11836;51.050;3.716;2023-04-24T00:15:54;17.90;99.90
23329;DHT22;11836;51.050;3.716;2023-04-24T00:18:20;17.90;99.90
23329;DHT22;11836;51.050;3.716;2023-04-24T00:20:46;17.90;99.90
23329;DHT22;11836;51.050;3.716;2023-04-24T00:23:12;17.90;99.90
23329;DHT22;11836;51.050;3.716;2023-04-24T00:25:38;17.90;99.90
23329;DHT22;11836;51.050;3.716;2023-04-24T00:28:03;17.90;99.90
23329;DHT22;11836;51.050;3.716;2023-04-24T00:30:29;17.90;99.90
23329;DHT22;11836;51.050;3.716;2023-04-24T00:32:55;17.90;99.90
23329;DHT22;11836;51.050;3.716;2023-04-24T00:35:21;17.90;99.90
23329;DHT22;11836;51.050;3.716;2023-04-24T00:37:46;17.80;99.90
23329;DHT22;11836;51.050;3.716;2023-04-24T00:40:12;17.80;99.90
23329;DHT22;11836;51.050;3.716;2023-04-24T00:42:39;17.80;99.90
23329;DHT22;11836;51.050;3.716;2023-04-24T00:45:05;17.80;99.90
23329;DHT22;11836;51.050;3.716;2023-04-24T00:47:33;17.80;99.90
23329;DHT22;11836;51.050;3.716;2023-04-24T00:50:03;17.80;99.90
23329;DHT22;11836;51.050;3.716;2023-04-24T00:52:29;17.80;99.90
23329;DHT22;11836;51.050;3.716;2023-04-24T00:54:57;17.80;99.90
23329;DHT22;11836;51.050;3.716;2023-04-24T00:57:23;17.80;99.90
23329;DHT22;11836;51.050;3.716;2023-04-24T00:59:51;17.80;99.90
23329;DHT22;11836;51.050;3.716;2023-04-24T01:02:17;17.70;99.90
23329;DHT22;11836;51.050;3.716;2023-04-24T01:04:43;17.80;99.90
23329;DHT22;11836;51.050;3.716;2023-04-24T01:07:09;17.80;99.90
23329;DHT22;11836;51.050;3.716;2023-04-24T01:09:44;17.70;99.90
23329;DHT22;11836;51.050;3.716;2023-04-24T01:12:12;17.80;99.90
23329;DHT22;11836;51.050;3.716;2023-04-24T01:14:38;17.70;99.90
23329;DHT22;11836;51.050;3.716;2023-04-24T01:17:05;17.70;99.90
23329;DHT22;11836;51.050;3.716;2023-04-24T01:19:31;17.70;99.90
23329;DHT22;11836;51.050;3.716;2023-04-24T01:21:58;17.70;99.90
23329;DHT22;11836;51.050;3.716;2023-04-24T01:24:27;17.70;99.90
23329;DHT22;11836;51.050;3.716;2023-04-24T01:26:53;17.60;99.90
23329;DHT22;11836;51.050;3.716;2023-04-24T01:29:19;17.70;99.90
23329;DHT22;11836;51.050;3.716;2023-04-24T01:31:45;17.70;99.90
23329;DHT22;11836;51.050;3.716;2023-04-24T01:34:11;17.70;99.90
23329;DHT22;11836;51.050;3.716;2023-04-24T01:36:37;17.60;99.90
23329;DHT22;11836;51.050;3.716;2023-04-24T01:39:04;17.60;99.90
23329;DHT22;11836;51.050;3.716;2023-04-24T01:41:30;17.60;99.90
23329;DHT22;11836;51.050;3.716;2023-04-24T01:43:57;17.60;99.90
23329;DHT22;11836;51.050;3.716;2023-04-24T01:46:24;17.60;99.90
23329;DHT22;11836;51.050;3.716;2023-04-24T01:48:51;17.60;99.90
23329;DHT22;11836;51.050;3.716;2023-04-24T01:51:17;17.60;99.90
23329;DHT22;11836;51.050;3.716;2023-04-24T01:53:43;17.60;99.90
23329;DHT22;11836;51.050;3.716;2023-04-24T01:56:09;17.60;99.90
23329;DHT22;11836;51.050;3.716;2023-04-24T01:58:35;17.60;99.90
23329;DHT22;11836;51.050;3.716;2023-04-24T02:01:00;17.50;99.90
23329;DHT22;11836;51.050;3.716;2023-04-24T02:03:26;17.60;99.90
23329;DHT22;11836;51.050;3.716;2023-04-24T02:05:52;17.50;99.90
23329;DHT22;11836;51.050;3.716;2023-04-24T02:08:18;17.50;99.90
23329;DHT22;11836;51.050;3.716;2023-04-24T02:10:45;17.50;99.90
23329;DHT22;11836;51.050;3.716;2023-04-24T02:13:13;17.50;99.90
23329;DHT22;11836;51.050;3.716;2023-04-24T02:15:39;17.50;99.90
23329;DHT22;11836;51.050;3.716;2023-04-24T02:18:04;17.50;99.90
23329;DHT22;11836;51.050;3.716;2023-04-24T02:20:32;17.50;99.90
23329;DHT22;11836;51.050;3.716;2023-04-24T02:22:59;17.50;99.90
23329;DHT22;11836;51.050;3.716;2023-04-24T02:25:25;17.50;99.90
23329;DHT22;11836;51.050;3.716;2023-04-24T02:27:51;17.50;99.90
23329;DHT22;11836;51.050;3.716;2023-04-24T02:30:16;17.50;99.90
23329;DHT22;11836;51.050;3.716;2023-04-24T02:32:42;17.50;99.90
23329;DHT22;11836;51.050;3.716;2023-04-24T02:35:08;17.40;99.90
23329;DHT22;11836;51.050;3.716;2023-04-24T02:37:34;17.50;99.90
23329;DHT22;11836;51.050;3.716;2023-04-24T02:39:59;17.50;99.90
23329;DHT22;11836;51.050;3.716;2023-04-24T02:42:25;17.40;99.90
23329;DHT22;11836;51.050;3.716;2023-04-24T02:44:51;17.40;99.90
23329;DHT22;11836;51.050;3.716;2023-04-24T02:47:16;17.40;99.90
23329;DHT22;11836;51.050;3.716;2023-04-24T02:49:42;17.40;99.90
23329;DHT22;11836;51.050;3.716;2023-04-24T02:52:08;17.40;99.90
23329;DHT22;11836;51.050;3.716;2023-04-24T02:54:33;17.40;99.90
23329;DHT22;11836;51.050;3.716;2023-04-24T02:57:00;17.40;99.90
23329;DHT22;11836;51.050;3.716;2023-04-24T02:59:27;17.40;99.90
23329;DHT22;11836;51.050;3.716;2023-04-24T03:01:54;17.40;99.90
23329;DHT22;11836;51.050;3.716;2023-04-24T03:04:20;17.40;99.90
23329;DHT22;11836;51.050;3.716;2023-04-24T03:06:45;17.40;99.90
23329;DHT22;11836;51.050;3.716;2023-04-24T03:09:11;17.30;99.90
23329;DHT22;11836;51.050;3.716;2023-04-24T03:11:37;17.30;99.90
23329;DHT22;11836;51.050;3.716;2023-04-24T03:14:02;17.30;99.90
23329;DHT22;11836;51.050;3.716;2023-04-24T03:16:28;17.30;99.90
23329;DHT22;11836;51.050;3.716;2023-04-24T03:18:54;17.30;99.90
23329;DHT22;11836;51.050;3.716;2023-04-24T03:21:23;17.30;99.90
23329;DHT22;11836;51.050;3.716;2023-04-24T03:23:48;17.30;99.90
23329;DHT22;11836;51.050;3.716;2023-04-24T03:26:14;17.30;99.90
23329;DHT22;11836;51.050;3.716;2023-04-24T03:28:40;17.30;99.90
23329;DHT22;11836;51.050;3.716;2023-04-24T03:31:06;17.30;99.90
23329;DHT22;11836;51.050;3.716;2023-04-24T03:33:32;17.30;99.90
23329;DHT22;11836;51.050;3.716;2023-04-24T03:35:57;17.30;99.90
23329;DHT22;11836;51.050;3.716;2023-04-24T03:38:23;17.30;99.90
23329;DHT22;11836;51.050;3.716;2023-04-24T03:40:48;17.20;99.90
23329;DHT22;11836;51.050;3.716;2023-04-24T03:43:14;17.30;99.90
23329;DHT22;11836;51.050;3.716;2023-04-24T03:45:40;17.30;99.90
23329;DHT22;11836;51.050;3.716;2023-04-24T03:48:06;17.20;99.90
23329;DHT22;11836;51.050;3.716;2023-04-24T03:50:33;17.30;99.90
23329;DHT22;11836;51.050;3.716;2023-04-24T03:52:58;17.20;99.90
23329;DHT22;11836;51.050;3.716;2023-04-24T03:55:24;17.20;99.90
23329;DHT22;11836;51.050;3.716;2023-04-24T03:57:50;17.20;99.90
23329;DHT22;11836;51.050;3.716;2023-04-24T04:00:16;17.20;99.90
23329;DHT22;11836;51.050;3.716;2023-04-24T04:02:41;17.20;99.90
23329;DHT22;11836;51.050;3.716;2023-04-24T04:05:07;17.20;99.90
23329;DHT22;11836;51.050;3.716;2023-04-24T04:07:34;17.20;99.90
23329;DHT22;11836;51.050;3.716;2023-04-24T04:10:00;17.20;99.90
23329;DHT22;11836;51.050;3.716;2023-04-24T04:12:25;17.20;99.90
23329;DHT22;11836;51.050;3.716;2023-04-24T04:14:51;17.20;99.90
23329;DHT22;11836;51.050;3.716;2023-04-24T04:17:17;17.20;99.90
23329;DHT22;11836;51.050;3.716;2023-04-24T04:19:43;17.20;99.90
23329;DHT22;11836;51.050;3.716;2023-04-24T04:22:09;17.20;99.90
23329;DHT22;11836;51.050;3.716;2023-04-24T04:24:34;17.20;99.90
23329;DHT22;11836;51.050;3.716;2023-04-24T04:27:04;17.20;99.90
23329;DHT22;11836;51.050;3.716;2023-04-24T04:29:31;17.10;99.90
23329;DHT22;11836;51.050;3.716;2023-04-24T04:31:57;17.10;99.90
23329;DHT22;11836;51.050;3.716;2023-04-24T04:34:24;17.10;99.90
23329;DHT22;11836;51.050;3.716;2023-04-24T04:36:50;17.10;99.90
23329;DHT22;11836;51.050;3.716;2023-04-24T04:39:19;17.10;99.90
23329;DHT22;11836;51.050;3.716;2023-04-24T04:41:45;17.00;99.90
23329;DHT22;11836;51.050;3.716;2023-04-24T04:44:17;17.10;99.90
23329;DHT22;11836;51.050;3.716;2023-04-24T04:46:43;17.10;99.90
23329;DHT22;11836;51.050;3.716;2023-04-24T04:49:09;17.10;99.90
23329;DHT22;11836;51.050;3.716;2023-04-24T04:51:36;17.00;99.80
23329;DHT22;11836;51.050;3.716;2023-04-24T04:54:02;17.00;99.80
23329;DHT22;11836;51.050;3.716;2023-04-24T04:56:27;17.00;99.80
23329;DHT22;11836;51.050;3.716;2023-04-24T04:58:53;17.00;99.80
23329;DHT22;11836;51.050;3.716;2023-04-24T05:01:19;17.00;99.80
23329;DHT22;11836;51.050;3.716;2023-04-24T05:03:45;17.00;99.80
23329;DHT22;11836;51.050;3.716;2023-04-24T05:06:11;17.00;99.80
23329;DHT22;11836;51.050;3.716;2023-04-24T05:08:36;17.00;99.80
23329;DHT22;11836;51.050;3.716;2023-04-24T05:11:02;17.00;99.80
23329;DHT22;11836;51.050;3.716;2023-04-24T05:13:27;17.00;99.90
23329;DHT22;11836;51.050;3.716;2023-04-24T05:15:53;16.90;99.90
23329;DHT22;11836;51.050;3.716;2023-04-24T05:18:19;17.00;99.90
23329;DHT22;11836;51.050;3.716;2023-04-24T05:20:44;17.00;99.90
23329;DHT22;11836;51.050;3.716;2023-04-24T05:23:10;16.80;99.90
23329;DHT22;11836;51.050;3.716;2023-04-24T05:25:37;16.90;99.90
23329;DHT22;11836;51.050;3.716;2023-04-24T05:28:04;17.00;99.90
23329;DHT22;11836;51.050;3.716;2023-04-24T05:30:31;16.90;99.90
23329;DHT22;11836;51.050;3.716;2023-04-24T05:32:56;16.90;99.90
23329;DHT22;11836;51.050;3.716;2023-04-24T05:35:22;16.90;99.90
23329;DHT22;11836;51.050;3.716;2023-04-24T05:37:48;16.90;99.90
23329;DHT22;11836;51.050;3.716;2023-04-24T05:40:14;16.90;99.90
23329;DHT22;11836;51.050;3.716;2023-04-24T05:42:43;16.90;99.90
23329;DHT22;11836;51.050;3.716;2023-04-24T05:45:09;16.90;99.90
23329;DHT22;11836;51.050;3.716;2023-04-24T05:47:40;16.90;99.90
23329;DHT22;11836;51.050;3.716;2023-04-24T05:50:06;16.90;99.90
23329;DHT22;11836;51.050;3.716;2023-04-24T05:52:34;16.90;99.90
23329;DHT22;11836;51.050;3.716;2023-04-24T05:55:00;16.90;99.90
23329;DHT22;11836;51.050;3.716;2023-04-24T05:57:26;16.90;99.90
23329;DHT22;11836;51.050;3.716;2023-04-24T05:59:52;16.90;99.90
23329;DHT22;11836;51.050;3.716;2023-04-24T06:02:18;16.90;99.90
23329;DHT22;11836;51.050;3.716;2023-04-24T06:04:44;16.90;99.90
23329;DHT22;11836;51.050;3.716;2023-04-24T06:07:13;16.80;99.90
23329;DHT22;11836;51.050;3.716;2023-04-24T06:09:38;16.90;99.90
23329;DHT22;11836;51.050;3.716;2023-04-24T06:12:04;16.80;99.90
23329;DHT22;11836;51.050;3.716;2023-04-24T06:14:30;16.90;99.90
23329;DHT22;11836;51.050;3.716;2023-04-24T06:16:56;16.80;99.90
23329;DHT22;11836;51.050;3.716;2023-04-24T06:19:22;16.80;99.90
23329;DHT22;11836;51.050;3.716;2023-04-24T06:21:47;16.80;99.90
23329;DHT22;11836;51.050;3.716;2023-04-24T06:24:14;16.90;99.90
23329;DHT22;11836;51.050;3.716;2023-04-24T06:26:41;16.90;99.90
23329;DHT22;11836;51.050;3.716;2023-04-24T06:29:07;16.90;99.90
23329;DHT22;11836;51.050;3.716;2023-04-24T06:31:33;16.90;99.90
23329;DHT22;11836;51.050;3.716;2023-04-24T06:34:03;17.00;99.90
23329;DHT22;11836;51.050;3.716;2023-04-24T06:36:28;17.00;99.90
23329;DHT22;11836;51.050;3.716;2023-04-24T06:38:54;17.10;99.90
23329;DHT22;11836;51.050;3.716;2023-04-24T06:41:20;17.10;99.80
23329;DHT22;11836;51.050;3.716;2023-04-24T06:43:46;17.10;99.70
23329;DHT22;11836;51.050;3.716;2023-04-24T06:46:11;17.20;99.50
23329;DHT22;11836;51.050;3.716;2023-04-24T06:48:39;17.20;99.30
23329;DHT22;11836;51.050;3.716;2023-04-24T06:51:13;17.20;99.20
23329;DHT22;11836;51.050;3.716;2023-04-24T06:53:39;17.20;99.00
23329;DHT22;11836;51.050;3.716;2023-04-24T06:56:11;17.20;98.90
23329;DHT22;11836;51.050;3.716;2023-04-24T06:58:36;17.30;98.70
23329;DHT22;11836;51.050;3.716;2023-04-24T07:01:02;17.30;98.60
23329;DHT22;11836;51.050;3.716;2023-04-24T07:03:28;17.30;98.60
23329;DHT22;11836;51.050;3.716;2023-04-24T07:05:55;17.30;98.60
23329;DHT22;11836;51.050;3.716;2023-04-24T07:08:20;17.40;98.90
23329;DHT22;11836;51.050;3.716;2023-04-24T07:10:48;17.40;98.50
23329;DHT22;11836;51.050;3.716;2023-04-24T07:13:13;17.40;98.40
23329;DHT22;11836;51.050;3.716;2023-04-24T07:15:39;17.40;98.60
23329;DHT22;11836;51.050;3.716;2023-04-24T07:18:06;17.40;98.80
23329;DHT22;11836;51.050;3.716;2023-04-24T07:20:32;17.40;98.80
23329;DHT22;11836;51.050;3.716;2023-04-24T07:22:58;17.50;99.10
23329;DHT22;11836;51.050;3.716;2023-04-24T07:25:24;17.40;99.10
23329;DHT22;11836;51.050;3.716;2023-04-24T07:27:49;17.40;99.10
23329;DHT22;11836;51.050;3.716;2023-04-24T07:30:15;17.50;99.70
23329;DHT22;11836;51.050;3.716;2023-04-24T07:32:41;17.50;99.40
23329;DHT22;11836;51.050;3.716;2023-04-24T07:35:07;17.50;99.30
23329;DHT22;11836;51.050;3.716;2023-04-24T07:37:35;17.50;99.40
23329;DHT22;11836;51.050;3.716;2023-04-24T07:40:01;17.60;99.40
23329;DHT22;11836;51.050;3.716;2023-04-24T07:42:27;17.50;99.30
23329;DHT22;11836;51.050;3.716;2023-04-24T07:44:53;17.60;99.40
23329;DHT22;11836;51.050;3.716;2023-04-24T07:47:19;17.60;99.40
23329;DHT22;11836;51.050;3.716;2023-04-24T07:49:45;17.50;99.40
23329;DHT22;11836;51.050;3.716;2023-04-24T07:52:11;17.60;99.30
23329;DHT22;11836;51.050;3.716;2023-04-24T07:54:36;17.70;99.20
23329;DHT22;11836;51.050;3.716;2023-04-24T07:57:03;17.70;99.10
23329;DHT22;11836;51.050;3.716;2023-04-24T07:59:28;17.70;99.00
23329;DHT22;11836;51.050;3.716;2023-04-24T08:01:54;17.80;98.90
23329;DHT22;11836;51.050;3.716;2023-04-24T08:04:23;17.90;99.00
23329;DHT22;11836;51.050;3.716;2023-04-24T08:06:50;18.20;99.30
23329;DHT22;11836;51.050;3.716;2023-04-24T08:09:18;18.40;99.40
23329;DHT22;11836;51.050;3.716;2023-04-24T08:11:44;18.60;99.20
23329;DHT22;11836;51.050;3.716;2023-04-24T08:14:10;18.70;98.90
23329;DHT22;11836;51.050;3.716;2023-04-24T08:16:37;18.80;99.00
23329;DHT22;11836;51.050;3.716;2023-04-24T08:19:03;18.90;98.70
23329;DHT22;11836;51.050;3.716;2023-04-24T08:21:35;18.90;98.50
23329;DHT22;11836;51.050;3.716;2023-04-24T08:24:01;18.90;98.50
23329;DHT22;11836;51.050;3.716;2023-04-24T08:26:30;18.90;99.00
23329;DHT22;11836;51.050;3.716;2023-04-24T08:28:57;19.00;99.40
23329;DHT22;11836;51.050;3.716;2023-04-24T08:31:22;19.00;99.40
23329;DHT22;11836;51.050;3.716;2023-04-24T08:33:51;19.10;99.40
23329;DHT22;11836;51.050;3.716;2023-04-24T08:36:16;19.20;99.20
23329;DHT22;11836;51.050;3.716;2023-04-24T08:38:42;19.40;98.90
23329;DHT22;11836;51.050;3.716;2023-04-24T08:41:09;19.50;98.80
23329;DHT22;11836;51.050;3.716;2023-04-24T08:43:35;19.50;98.50
23329;DHT22;11836;51.050;3.716;2023-04-24T08:46:04;19.50;98.30
23329;DHT22;11836;51.050;3.716;2023-04-24T08:48:30;19.60;98.80
23329;DHT22;11836;51.050;3.716;2023-04-24T08:50:57;19.50;98.50
23329;DHT22;11836;51.050;3.716;2023-04-24T08:53:24;19.40;98.40
23329;DHT22;11836;51.050;3.716;2023-04-24T08:55:51;19.30;98.40
23329;DHT22;11836;51.050;3.716;2023-04-24T08:58:17;19.20;98.30
23329;DHT22;11836;51.050;3.716;2023-04-24T09:00:47;19.20;98.30
23329;DHT22;11836;51.050;3.716;2023-04-24T09:03:15;19.10;98.30
23329;DHT22;11836;51.050;3.716;2023-04-24T09:05:46;19.10;98.40
23329;DHT22;11836;51.050;3.716;2023-04-24T09:08:13;19.00;98.20
23329;DHT22;11836;51.050;3.716;2023-04-24T09:10:41;19.00;98.30
23329;DHT22;11836;51.050;3.716;2023-04-24T09:13:07;19.00;98.30
23329;DHT22;11836;51.050;3.716;2023-04-24T09:15:37;19.00;98.20
23329;DHT22;11836;51.050;3.716;2023-04-24T09:18:03;18.90;98.10
23329;DHT22;11836;51.050;3.716;2023-04-24T09:20:29;18.90;98.20
23329;DHT22;11836;51.050;3.716;2023-04-24T09:22:56;19.00;98.20
23329;DHT22;11836;51.050;3.716;2023-04-24T09:25:23;18.90;98.20
23329;DHT22;11836;51.050;3.716;2023-04-24T09:27:53;18.90;98.50
23329;DHT22;11836;51.050;3.716;2023-04-24T09:30:23;18.80;98.20
23329;DHT22;11836;51.050;3.716;2023-04-24T09:33:12;18.80;98.50
23329;DHT22;11836;51.050;3.716;2023-04-24T09:35:58;18.80;98.10
23329;DHT22;11836;51.050;3.716;2023-04-24T09:38:35;18.80;98.10
23329;DHT22;11836;51.050;3.716;2023-04-24T09:41:23;18.80;98.10
23329;DHT22;11836;51.050;3.716;2023-04-24T09:44:21;18.80;98.10
23329;DHT22;11836;51.050;3.716;2023-04-24T09:46:58;18.80;97.90
23329;DHT22;11836;51.050;3.716;2023-04-24T09:49:26;18.80;97.90
23329;DHT22;11836;51.050;3.716;2023-04-24T09:52:05;18.80;98.00
23329;DHT22;11836;51.050;3.716;2023-04-24T09:54:31;18.80;98.00
23329;DHT22;11836;51.050;3.716;2023-04-24T09:56:59;18.90;98.10
23329;DHT22;11836;51.050;3.716;2023-04-24T09:59:26;18.90;98.00
23329;DHT22;11836;51.050;3.716;2023-04-24T10:01:51;18.90;98.00
23329;DHT22;11836;51.050;3.716;2023-04-24T10:04:21;18.90;98.00
23329;DHT22;11836;51.050;3.716;2023-04-24T10:06:49;18.90;97.80
23329;DHT22;11836;51.050;3.716;2023-04-24T10:09:19;18.90;97.80
23329;DHT22;11836;51.050;3.716;2023-04-24T10:11:48;18.90;97.90
23329;DHT22;11836;51.050;3.716;2023-04-24T10:14:17;19.00;98.00
23329;DHT22;11836;51.050;3.716;2023-04-24T10:16:43;19.00;97.80
23329;DHT22;11836;51.050;3.716;2023-04-24T10:19:09;18.90;97.60
23329;DHT22;11836;51.050;3.716;2023-04-24T10:21:36;19.00;97.70
23329;DHT22;11836;51.050;3.716;2023-04-24T10:24:08;19.00;97.70
23329;DHT22;11836;51.050;3.716;2023-04-24T10:26:34;19.00;97.60
23329;DHT22;11836;51.050;3.716;2023-04-24T10:29:01;19.00;97.70
23329;DHT22;11836;51.050;3.716;2023-04-24T10:31:30;19.00;97.60
23329;DHT22;11836;51.050;3.716;2023-04-24T10:33:56;19.00;97.60
23329;DHT22;11836;51.050;3.716;2023-04-24T10:36:25;19.00;97.60
23329;DHT22;11836;51.050;3.716;2023-04-24T10:38:53;19.10;97.40
23329;DHT22;11836;51.050;3.716;2023-04-24T10:41:20;19.00;97.60
23329;DHT22;11836;51.050;3.716;2023-04-24T10:44:03;19.00;97.60
23329;DHT22;11836;51.050;3.716;2023-04-24T10:46:30;19.10;97.60
23329;DHT22;11836;51.050;3.716;2023-04-24T10:48:56;19.00;97.40
23329;DHT22;11836;51.050;3.716;2023-04-24T10:51:24;19.00;97.60
23329;DHT22;11836;51.050;3.716;2023-04-24T10:53:51;19.00;97.50
23329;DHT22;11836;51.050;3.716;2023-04-24T10:56:18;19.00;97.50
23329;DHT22;11836;51.050;3.716;2023-04-24T10:58:51;19.00;97.40
23329;DHT22;11836;51.050;3.716;2023-04-24T11:01:26;19.10;97.60
23329;DHT22;11836;51.050;3.716;2023-04-24T11:04:02;19.10;97.50
23329;DHT22;11836;51.050;3.716;2023-04-24T11:06:37;19.10;97.60
23329;DHT22;11836;51.050;3.716;2023-04-24T11:09:10;19.10;97.60
23329;DHT22;11836;51.050;3.716;2023-04-24T11:11:43;19.00;97.60
23329;DHT22;11836;51.050;3.716;2023-04-24T11:14:10;19.00;97.60
23329;DHT22;11836;51.050;3.716;2023-04-24T11:26:51;19.10;97.60
23329;DHT22;11836;51.050;3.716;2023-04-24T11:29:23;19.10;97.40
23329;DHT22;11836;51.050;3.716;2023-04-24T11:31:49;19.00;97.30
23329;DHT22;11836;51.050;3.716;2023-04-24T11:34:17;19.10;97.50
23329;DHT22;11836;51.050;3.716;2023-04-24T11:36:46;19.10;97.40
23329;DHT22;11836;51.050;3.716;2023-04-24T11:39:13;19.10;97.60
23329;DHT22;11836;51.050;3.716;2023-04-24T11:41:42;19.10;97.60
23329;DHT22;11836;51.050;3.716;2023-04-24T11:44:12;19.10;97.60
23329;DHT22;11836;51.050;3.716;2023-04-24T11:46:39;19.00;97.90
23329;DHT22;11836;51.050;3.716;2023-04-24T11:49:27;19.10;98.00
23329;DHT22;11836;51.050;3.716;2023-04-24T11:51:56;19.10;97.90
23329;DHT22;11836;51.050;3.716;2023-04-24T11:54:22;19.10;97.90
23329;DHT22;11836;51.050;3.716;2023-04-24T11:56:48;19.00;97.80
23329;DHT22;11836;51.050;3.716;2023-04-24T11:59:14;19.00;97.70
23329;DHT22;11836;51.050;3.716;2023-04-24T12:01:44;19.00;97.70
23329;DHT22;11836;51.050;3.716;2023-04-24T12:04:11;19.00;97.70
23329;DHT22;11836;51.050;3.716;2023-04-24T12:06:36;19.00;97.70
23329;DHT22;11836;51.050;3.716;2023-04-24T12:09:05;19.00;97.70
23329;DHT22;11836;51.050;3.716;2023-04-24T12:11:31;19.00;97.70
23329;DHT22;11836;51.050;3.716;2023-04-24T12:13:57;19.10;97.70
23329;DHT22;11836;51.050;3.716;2023-04-24T12:16:25;19.00;97.60
23329;DHT22;11836;51.050;3.716;2023-04-24T12:18:52;19.00;97.50
23329;DHT22;11836;51.050;3.716;2023-04-24T12:21:22;19.00;97.60
23329;DHT22;11836;51.050;3.716;2023-04-24T12:23:48;19.00;97.50
23329;DHT22;11836;51.050;3.716;2023-04-24T12:26:18;18.90;97.60
23329;DHT22;11836;51.050;3.716;2023-04-24T12:28:48;18.90;97.50
23329;DHT22;11836;51.050;3.716;2023-04-24T12:31:15;18.90;97.40
23329;DHT22;11836;51.050;3.716;2023-04-24T12:33:42;18.90;97.60
23329;DHT22;11836;51.050;3.716;2023-04-24T12:36:10;18.90;97.70
23329;DHT22;11836;51.050;3.716;2023-04-24T12:38:37;18.90;97.70
23329;DHT22;11836;51.050;3.716;2023-04-24T12:41:11;18.90;97.90
23329;DHT22;11836;51.050;3.716;2023-04-24T12:43:37;18.90;98.00
23329;DHT22;11836;51.050;3.716;2023-04-24T12:46:03;18.90;98.00
23329;DHT22;11836;51.050;3.716;2023-04-24T12:48:29;18.90;98.20
23329;DHT22;11836;51.050;3.716;2023-04-24T12:50:58;18.90;98.10
23329;DHT22;11836;51.050;3.716;2023-04-24T12:53:26;18.90;98.00
23329;DHT22;11836;51.050;3.716;2023-04-24T12:55:53;18.90;98.00
23329;DHT22;11836;51.050;3.716;2023-04-24T12:58:22;18.80;97.10
23329;DHT22;11836;51.050;3.716;2023-04-24T13:00:48;18.80;97.50
23329;DHT22;11836;51.050;3.716;2023-04-24T13:03:14;18.80;97.30
23329;DHT22;11836;51.050;3.716;2023-04-24T13:05:41;18.40;91.00
23329;DHT22;11836;51.050;3.716;2023-04-24T13:08:07;17.70;90.90
23329;DHT22;11836;51.050;3.716;2023-04-24T13:10:34;17.40;94.00
23329;DHT22;11836;51.050;3.716;2023-04-24T13:13:00;17.30;95.40
23329;DHT22;11836;51.050;3.716;2023-04-24T13:15:25;17.40;95.40
23329;DHT22;11836;51.050;3.716;2023-04-24T13:17:51;17.40;96.20
23329;DHT22;11836;51.050;3.716;2023-04-24T13:20:17;17.50;95.20
23329;DHT22;11836;51.050;3.716;2023-04-24T13:22:43;17.50;95.80
23329;DHT22;11836;51.050;3.716;2023-04-24T13:25:08;17.60;96.00
23329;DHT22;11836;51.050;3.716;2023-04-24T13:27:35;17.70;96.20
23329;DHT22;11836;51.050;3.716;2023-04-24T13:30:04;17.70;96.50
23329;DHT22;11836;51.050;3.716;2023-04-24T13:32:30;17.80;96.20
23329;DHT22;11836;51.050;3.716;2023-04-24T13:34:57;17.80;96.20
23329;DHT22;11836;51.050;3.716;2023-04-24T13:37:23;17.80;96.80
23329;DHT22;11836;51.050;3.716;2023-04-24T13:39:48;17.90;97.00
23329;DHT22;11836;51.050;3.716;2023-04-24T13:42:14;17.90;95.80
23329;DHT22;11836;51.050;3.716;2023-04-24T13:44:40;17.90;95.60
23329;DHT22;11836;51.050;3.716;2023-04-24T13:47:05;17.90;95.40
23329;DHT22;11836;51.050;3.716;2023-04-24T13:49:31;17.90;96.30
23329;DHT22;11836;51.050;3.716;2023-04-24T13:51:57;17.90;96.50
23329;DHT22;11836;51.050;3.716;2023-04-24T13:54:23;17.90;96.50
23329;DHT22;11836;51.050;3.716;2023-04-24T13:57:00;17.90;96.40
23329;DHT22;11836;51.050;3.716;2023-04-24T13:59:26;17.90;96.80
23329;DHT22;11836;51.050;3.716;2023-04-24T14:01:52;18.00;96.90
23329;DHT22;11836;51.050;3.716;2023-04-24T14:04:20;18.00;96.90
23329;DHT22;11836;51.050;3.716;2023-04-24T14:06:46;18.10;96.10
23329;DHT22;11836;51.050;3.716;2023-04-24T14:09:12;18.00;96.60
23329;DHT22;11836;51.050;3.716;2023-04-24T14:11:38;18.10;98.00
23329;DHT22;11836;51.050;3.716;2023-04-24T14:14:04;18.10;98.30
23329;DHT22;11836;51.050;3.716;2023-04-24T14:16:29;18.20;98.20
23329;DHT22;11836;51.050;3.716;2023-04-24T14:18:55;18.20;98.00
23329;DHT22;11836;51.050;3.716;2023-04-24T14:21:24;18.20;98.10
23329;DHT22;11836;51.050;3.716;2023-04-24T14:23:50;18.20;98.00
23329;DHT22;11836;51.050;3.716;2023-04-24T14:26:15;18.30;97.90
23329;DHT22;11836;51.050;3.716;2023-04-24T14:28:41;18.20;97.90
23329;DHT22;11836;51.050;3.716;2023-04-24T14:31:07;18.30;97.90
23329;DHT22;11836;51.050;3.716;2023-04-24T14:33:36;18.30;98.00
23329;DHT22;11836;51.050;3.716;2023-04-24T14:36:01;18.30;98.00
23329;DHT22;11836;51.050;3.716;2023-04-24T14:38:28;18.40;98.10
23329;DHT22;11836;51.050;3.716;2023-04-24T14:40:55;18.40;98.00
23329;DHT22;11836;51.050;3.716;2023-04-24T14:43:21;18.40;98.00
23329;DHT22;11836;51.050;3.716;2023-04-24T14:45:50;18.40;98.10
23329;DHT22;11836;51.050;3.716;2023-04-24T14:48:16;18.50;98.20
23329;DHT22;11836;51.050;3.716;2023-04-24T14:50:43;18.50;98.20
23329;DHT22;11836;51.050;3.716;2023-04-24T14:53:08;18.50;98.30
23329;DHT22;11836;51.050;3.716;2023-04-24T14:55:34;18.50;98.40
23329;DHT22;11836;51.050;3.716;2023-04-24T14:58:02;18.50;98.50
23329;DHT22;11836;51.050;3.716;2023-04-24T15:00:27;18.50;98.60
23329;DHT22;11836;51.050;3.716;2023-04-24T15:02:53;18.60;98.50
23329;DHT22;11836;51.050;3.716;2023-04-24T15:05:20;18.50;96.20
23329;DHT22;11836;51.050;3.716;2023-04-24T15:07:46;18.40;96.90
23329;DHT22;11836;51.050;3.716;2023-04-24T15:10:12;18.50;97.60
23329;DHT22;11836;51.050;3.716;2023-04-24T15:12:40;18.50;98.00
23329;DHT22;11836;51.050;3.716;2023-04-24T15:15:07;18.50;98.20
23329;DHT22;11836;51.050;3.716;2023-04-24T15:17:33;18.60;98.20
23329;DHT22;11836;51.050;3.716;2023-04-24T15:19:58;18.60;98.10
23329;DHT22;11836;51.050;3.716;2023-04-24T15:22:24;18.60;98.20
23329;DHT22;11836;51.050;3.716;2023-04-24T15:24:53;18.60;99.20
23329;DHT22;11836;51.050;3.716;2023-04-24T15:27:19;18.60;99.20
23329;DHT22;11836;51.050;3.716;2023-04-24T15:29:45;18.60;99.30
23329;DHT22;11836;51.050;3.716;2023-04-24T15:32:10;18.60;98.90
23329;DHT22;11836;51.050;3.716;2023-04-24T15:34:36;18.60;98.80
23329;DHT22;11836;51.050;3.716;2023-04-24T15:37:05;18.70;98.70
23329;DHT22;11836;51.050;3.716;2023-04-24T15:39:31;18.70;98.70